Taylor, WI

4:21 PM CDT on July 10, 2014 (GMT -0500)
La Crosse Municipal (KLSE) Elev 653 ft | 43.88 °N, 91.25 °W | Change Station

Current weather conditions updated 28 minutes ago

Haze
Haze
83 °F
Feels Like 84 °F
N
12
Wind Variable Wind from South

Tomorrow is forecast to be Cooler than today. Thunderstorms early tomorrow night.

Today
High -- | Low -- °F
--% Chance of Precip.
Yesterday
High -- | Low -- °F
Precip. -- in
5:30 AM 8:49 PM
Waxing Gibbous, 96% visible
Pressure 30.04 in
Visibility 5.0 miles
Clouds Few 4300 ft
Heat Index 84 °F
Dew Point 63 °F
Humidity 51%
Rainfall 0.00 in
Snow Depth Not available.
UV 7 out of 12
Pollen 3.80 out of 12
Air Quality Not available.
Flu Activity Sporadic
METAR KLSE 102053Z 18010KT 5SM HZ FEW043 28/17 A3006 RMK AO2 SLP170 T02830172 58010

More Conditions Fewer Conditions

Pressure 30.04 in
Visibility 5.0 miles
Clouds Few 4300 ft
Heat Index 84 °F
Dew Point 63 °F
Humidity 51%
Rainfall 0.00 in
Snow Depth Not available.
UV 7 out of 12
Pollen 3.80 out of 12
Air Quality Not available.
Flu Activity Sporadic
METAR KLSE 102053Z 18010KT 5SM HZ FEW043 28/17 A3006 RMK AO2 SLP170 T02830172 58010

More Conditions Fewer Conditions

10-Day Weather Forecast

Almanac

Astronomy

Jul. 10, 2014 Rise Set
Actual Time 5:30 AM CDT 8:49 PM CDT
Civil Twilight 4:54 AM CDT 9:24 PM CDT
Nautical Twilight 4:07 AM CDT 10:11 PM CDT
Astronomical Twilight 3:09 AM CDT 11:08 PM CDT
Moon 6:59 PM CDT 3:44 AM CDT
Length of Visible Light 16h 30m
Length of Day
15h 18m
Tomorrow will be 1m 20s shorter.
Waxing Gibbous, 96% of the Moon is Illuminated
Today
Waxing Gibbous
Jul 12
Full
Jul 18
Last Quarter
Jul 26
New
Aug 3
First Quarter

Today's Extremes

State Highs State Lows

Community

WunderPhotos

Upload Photos

1,732,268 photos uploaded!

Nearby

Snow Depth

Station Depth Elevation
No new snow has been reported.

Earthquake Activity

City Distance Mag. Time & Date
No recent earthquake activity has been reported nearby.
Minimum magnitude displayed is 2.5.

Coastal Water Temperatures

Place Temperature
No Stations Reporting

Nearby Weather Stations

Station Location Temp. Heat Index Dew Point Humidity Wind Precip. Elev Updated Type
WIDOT Black River Falls - I-94 @ Sandcut, Black River Falls, WI 81 °F 82 °F 62 °F 51% North  at  0 mph 0.00 in / hr 1090 ft 3:11 PM CDT MADIS
RAWS BLACK RIVER FALLS WI, Black River Falls, WI 82 °F 83 °F 63 °F 53% SE  at  7 mph 0.00 in / hr 837 ft 3:15 PM CDT MADIS
MesoWest HUMBIR , Humbird, WI 78 °F 76 °F - - North  at  - 0.00 in / hr 1092 ft 2:40 PM CDT MADIS
Black Oak, Mindoro, WI 84.2 °F 90 °F 72 °F 67% ENE  at  3.8 mph 0.00 in / hr 781 ft 4:16 PM CDT Rapid Fire
Osseo, WI 81.5 °F 84 °F 67 °F 62% SSW  at  3.0 mph 0.00 in / hr 997 ft 4:18 PM CDT Normal
Galesville SW, Galesville, WI 83.3 °F 87 °F 68 °F 61% SSW  at  6.9 mph 0.00 in / hr 769 ft 4:21 PM CDT Rapid Fire

Show More Stations Show Fewer Stations